sensor_id;sensor_type;location;lat;lon;timestamp;P1;durP1;ratioP1;P2;durP2;ratioP2
59854;SDS011;45732;52.850;6.896;2023-07-29T00:00:42;12.55;;;8.70;;
59854;SDS011;45732;52.850;6.896;2023-07-29T00:03:09;11.48;;;8.63;;
59854;SDS011;45732;52.850;6.896;2023-07-29T00:05:35;11.75;;;9.60;;
59854;SDS011;45732;52.850;6.896;2023-07-29T00:08:02;14.38;;;10.52;;
59854;SDS011;45732;52.850;6.896;2023-07-29T00:10:28;12.88;;;9.52;;
59854;SDS011;45732;52.850;6.896;2023-07-29T00:12:54;13.63;;;9.63;;
59854;SDS011;45732;52.850;6.896;2023-07-29T00:15:19;11.70;;;10.00;;
59854;SDS011;45732;52.850;6.896;2023-07-29T00:17:45;11.60;;;10.02;;
59854;SDS011;45732;52.850;6.896;2023-07-29T00:20:11;14.50;;;10.10;;
59854;SDS011;45732;52.850;6.896;2023-07-29T00:22:37;13.82;;;10.82;;
59854;SDS011;45732;52.850;6.896;2023-07-29T00:25:03;14.15;;;10.85;;
59854;SDS011;45732;52.850;6.896;2023-07-29T00:27:29;13.98;;;11.05;;
59854;SDS011;45732;52.850;6.896;2023-07-29T00:29:54;16.83;;;12.13;;
59854;SDS011;45732;52.850;6.896;2023-07-29T00:32:20;14.40;;;11.88;;
59854;SDS011;45732;52.850;6.896;2023-07-29T00:34:46;17.35;;;12.70;;
59854;SDS011;45732;52.850;6.896;2023-07-29T00:37:11;14.25;;;11.95;;
59854;SDS011;45732;52.850;6.896;2023-07-29T00:39:37;15.88;;;12.80;;
59854;SDS011;45732;52.850;6.896;2023-07-29T00:42:03;18.05;;;12.32;;
59854;SDS011;45732;52.850;6.896;2023-07-29T00:44:29;16.50;;;12.23;;
59854;SDS011;45732;52.850;6.896;2023-07-29T00:46:56;19.00;;;13.45;;
59854;SDS011;45732;52.850;6.896;2023-07-29T00:49:23;16.08;;;12.48;;
59854;SDS011;45732;52.850;6.896;2023-07-29T00:51:49;16.42;;;13.13;;
59854;SDS011;45732;52.850;6.896;2023-07-29T00:54:15;16.13;;;12.70;;
59854;SDS011;45732;52.850;6.896;2023-07-29T00:56:41;16.70;;;12.90;;
59854;SDS011;45732;52.850;6.896;2023-07-29T00:59:07;16.15;;;12.68;;
59854;SDS011;45732;52.850;6.896;2023-07-29T01:01:33;14.15;;;11.65;;
59854;SDS011;45732;52.850;6.896;2023-07-29T01:03:59;14.10;;;11.45;;
59854;SDS011;45732;52.850;6.896;2023-07-29T01:14:36;14.15;;;10.90;;
59854;SDS011;45732;52.850;6.896;2023-07-29T01:17:08;13.48;;;10.77;;
59854;SDS011;45732;52.850;6.896;2023-07-29T01:22:21;12.68;;;10.80;;
59854;SDS011;45732;52.850;6.896;2023-07-29T01:24:49;13.27;;;10.60;;
59854;SDS011;45732;52.850;6.896;2023-07-29T01:27:15;15.18;;;11.48;;
59854;SDS011;45732;52.850;6.896;2023-07-29T01:29:40;13.05;;;10.52;;
59854;SDS011;45732;52.850;6.896;2023-07-29T01:32:08;14.77;;;10.20;;
59854;SDS011;45732;52.850;6.896;2023-07-29T01:34:41;12.35;;;10.02;;
59854;SDS011;45732;52.850;6.896;2023-07-29T01:37:14;14.10;;;10.48;;
59854;SDS011;45732;52.850;6.896;2023-07-29T01:39:46;12.75;;;10.40;;
59854;SDS011;45732;52.850;6.896;2023-07-29T01:42:14;13.25;;;10.48;;
59854;SDS011;45732;52.850;6.896;2023-07-29T01:44:41;13.68;;;11.00;;
59854;SDS011;45732;52.850;6.896;2023-07-29T01:47:07;14.32;;;10.82;;
59854;SDS011;45732;52.850;6.896;2023-07-29T01:49:33;13.00;;;9.80;;
59854;SDS011;45732;52.850;6.896;2023-07-29T01:51:59;13.30;;;10.20;;
59854;SDS011;45732;52.850;6.896;2023-07-29T01:54:25;12.65;;;10.30;;
59854;SDS011;45732;52.850;6.896;2023-07-29T01:56:50;13.30;;;10.05;;
59854;SDS011;45732;52.850;6.896;2023-07-29T01:59:16;12.35;;;10.23;;
59854;SDS011;45732;52.850;6.896;2023-07-29T02:01:42;13.30;;;10.10;;
59854;SDS011;45732;52.850;6.896;2023-07-29T02:04:08;13.07;;;10.10;;
59854;SDS011;45732;52.850;6.896;2023-07-29T02:06:34;12.20;;;10.50;;
59854;SDS011;45732;52.850;6.896;2023-07-29T02:08:59;12.25;;;10.30;;
59854;SDS011;45732;52.850;6.896;2023-07-29T02:11:25;13.40;;;10.10;;
59854;SDS011;45732;52.850;6.896;2023-07-29T02:13:55;11.20;;;10.00;;
59854;SDS011;45732;52.850;6.896;2023-07-29T02:16:21;13.80;;;10.63;;
59854;SDS011;45732;52.850;6.896;2023-07-29T02:18:48;14.02;;;10.15;;
59854;SDS011;45732;52.850;6.896;2023-07-29T02:21:14;14.93;;;10.52;;
59854;SDS011;45732;52.850;6.896;2023-07-29T02:23:40;13.57;;;10.57;;
59854;SDS011;45732;52.850;6.896;2023-07-29T02:26:06;11.88;;;10.02;;
59854;SDS011;45732;52.850;6.896;2023-07-29T02:28:32;12.23;;;10.07;;
59854;SDS011;45732;52.850;6.896;2023-07-29T02:33:43;13.73;;;10.50;;
59854;SDS011;45732;52.850;6.896;2023-07-29T02:36:10;12.35;;;10.15;;
59854;SDS011;45732;52.850;6.896;2023-07-29T02:38:37;11.57;;;9.40;;
59854;SDS011;45732;52.850;6.896;2023-07-29T02:41:02;12.15;;;9.40;;
59854;SDS011;45732;52.850;6.896;2023-07-29T02:43:28;11.93;;;9.20;;
59854;SDS011;45732;52.850;6.896;2023-07-29T02:45:54;11.52;;;8.68;;
59854;SDS011;45732;52.850;6.896;2023-07-29T02:48:20;11.82;;;9.38;;
59854;SDS011;45732;52.850;6.896;2023-07-29T02:50:45;12.13;;;9.23;;
59854;SDS011;45732;52.850;6.896;2023-07-29T02:53:11;12.63;;;9.05;;
59854;SDS011;45732;52.850;6.896;2023-07-29T02:55:40;10.63;;;8.60;;
59854;SDS011;45732;52.850;6.896;2023-07-29T02:58:06;11.60;;;9.20;;
59854;SDS011;45732;52.850;6.896;2023-07-29T03:00:32;12.00;;;9.05;;
59854;SDS011;45732;52.850;6.896;2023-07-29T03:02:58;12.20;;;9.60;;
59854;SDS011;45732;52.850;6.896;2023-07-29T03:05:24;11.82;;;9.02;;
59854;SDS011;45732;52.850;6.896;2023-07-29T03:07:52;11.73;;;9.55;;
59854;SDS011;45732;52.850;6.896;2023-07-29T03:10:18;9.85;;;8.13;;
59854;SDS011;45732;52.850;6.896;2023-07-29T03:12:44;10.82;;;8.13;;
59854;SDS011;45732;52.850;6.896;2023-07-29T03:15:09;10.00;;;7.80;;
59854;SDS011;45732;52.850;6.896;2023-07-29T03:17:35;10.95;;;8.55;;
59854;SDS011;45732;52.850;6.896;2023-07-29T03:20:01;10.02;;;7.60;;
59854;SDS011;45732;52.850;6.896;2023-07-29T03:22:26;11.45;;;7.80;;
59854;SDS011;45732;52.850;6.896;2023-07-29T03:24:52;9.85;;;7.07;;
59854;SDS011;45732;52.850;6.896;2023-07-29T03:27:18;9.45;;;7.13;;
59854;SDS011;45732;52.850;6.896;2023-07-29T03:29:43;10.55;;;7.20;;
59854;SDS011;45732;52.850;6.896;2023-07-29T03:32:09;10.50;;;6.95;;
59854;SDS011;45732;52.850;6.896;2023-07-29T03:34:36;11.05;;;7.07;;
59854;SDS011;45732;52.850;6.896;2023-07-29T03:37:01;8.75;;;6.10;;
59854;SDS011;45732;52.850;6.896;2023-07-29T03:39:27;8.98;;;6.32;;
59854;SDS011;45732;52.850;6.896;2023-07-29T03:41:53;10.45;;;6.47;;
59854;SDS011;45732;52.850;6.896;2023-07-29T03:44:19;8.60;;;6.07;;
59854;SDS011;45732;52.850;6.896;2023-07-29T03:46:44;10.27;;;6.28;;
59854;SDS011;45732;52.850;6.896;2023-07-29T03:49:10;10.13;;;6.00;;
59854;SDS011;45732;52.850;6.896;2023-07-29T03:51:36;7.82;;;5.57;;
59854;SDS011;45732;52.850;6.896;2023-07-29T03:54:02;8.55;;;5.38;;
59854;SDS011;45732;52.850;6.896;2023-07-29T03:56:28;8.60;;;5.68;;
59854;SDS011;45732;52.850;6.896;2023-07-29T03:58:53;8.45;;;5.10;;
59854;SDS011;45732;52.850;6.896;2023-07-29T04:01:28;7.32;;;4.72;;
59854;SDS011;45732;52.850;6.896;2023-07-29T04:03:54;8.75;;;5.18;;
59854;SDS011;45732;52.850;6.896;2023-07-29T04:06:20;8.20;;;4.80;;
59854;SDS011;45732;52.850;6.896;2023-07-29T04:08:46;9.63;;;5.07;;
59854;SDS011;45732;52.850;6.896;2023-07-29T04:11:12;7.82;;;4.57;;
59854;SDS011;45732;52.850;6.896;2023-07-29T04:13:37;7.20;;;4.30;;
59854;SDS011;45732;52.850;6.896;2023-07-29T04:16:04;7.85;;;4.10;;
59854;SDS011;45732;52.850;6.896;2023-07-29T04:18:30;6.93;;;4.30;;
59854;SDS011;45732;52.850;6.896;2023-07-29T04:20:56;8.15;;;4.35;;
59854;SDS011;45732;52.850;6.896;2023-07-29T04:23:21;7.85;;;4.50;;
59854;SDS011;45732;52.850;6.896;2023-07-29T04:25:47;7.60;;;4.28;;
59854;SDS011;45732;52.850;6.896;2023-07-29T04:28:13;9.52;;;4.53;;
59854;SDS011;45732;52.850;6.896;2023-07-29T04:30:39;6.40;;;4.22;;
59854;SDS011;45732;52.850;6.896;2023-07-29T04:33:04;9.10;;;4.45;;
59854;SDS011;45732;52.850;6.896;2023-07-29T04:35:30;7.90;;;4.63;;
59854;SDS011;45732;52.850;6.896;2023-07-29T04:37:55;9.43;;;5.18;;
59854;SDS011;45732;52.850;6.896;2023-07-29T04:40:21;8.93;;;4.85;;
59854;SDS011;45732;52.850;6.896;2023-07-29T04:42:48;8.88;;;4.90;;
59854;SDS011;45732;52.850;6.896;2023-07-29T04:45:14;8.15;;;4.88;;
59854;SDS011;45732;52.850;6.896;2023-07-29T04:47:41;7.47;;;4.78;;
59854;SDS011;45732;52.850;6.896;2023-07-29T04:50:07;7.63;;;4.75;;
59854;SDS011;45732;52.850;6.896;2023-07-29T04:52:33;7.25;;;4.28;;
59854;SDS011;45732;52.850;6.896;2023-07-29T04:54:58;7.50;;;4.20;;
59854;SDS011;45732;52.850;6.896;2023-07-29T04:57:24;7.82;;;4.15;;
59854;SDS011;45732;52.850;6.896;2023-07-29T04:59:50;7.75;;;3.85;;
59854;SDS011;45732;52.850;6.896;2023-07-29T05:02:15;6.50;;;4.13;;
59854;SDS011;45732;52.850;6.896;2023-07-29T05:04:41;7.22;;;3.90;;
59854;SDS011;45732;52.850;6.896;2023-07-29T05:07:08;5.93;;;3.75;;
59854;SDS011;45732;52.850;6.896;2023-07-29T05:09:34;6.00;;;3.50;;
59854;SDS011;45732;52.850;6.896;2023-07-29T05:11:59;7.13;;;3.70;;
59854;SDS011;45732;52.850;6.896;2023-07-29T05:14:25;8.80;;;3.78;;
59854;SDS011;45732;52.850;6.896;2023-07-29T05:16:51;8.90;;;4.15;;
59854;SDS011;45732;52.850;6.896;2023-07-29T05:19:17;6.15;;;3.35;;
59854;SDS011;45732;52.850;6.896;2023-07-29T05:21:43;6.65;;;3.42;;
59854;SDS011;45732;52.850;6.896;2023-07-29T05:24:08;6.93;;;3.40;;
59854;SDS011;45732;52.850;6.896;2023-07-29T05:26:34;6.75;;;3.20;;
59854;SDS011;45732;52.850;6.896;2023-07-29T05:29:00;6.13;;;3.50;;
59854;SDS011;45732;52.850;6.896;2023-07-29T05:31:26;5.55;;;3.28;;
59854;SDS011;45732;52.850;6.896;2023-07-29T05:33:53;6.88;;;3.08;;
59854;SDS011;45732;52.850;6.896;2023-07-29T05:36:18;5.95;;;3.00;;
59854;SDS011;45732;52.850;6.896;2023-07-29T05:38:44;5.28;;;3.17;;
59854;SDS011;45732;52.850;6.896;2023-07-29T05:41:10;6.32;;;2.60;;
59854;SDS011;45732;52.850;6.896;2023-07-29T05:43:35;5.88;;;3.25;;
59854;SDS011;45732;52.850;6.896;2023-07-29T05:46:02;6.38;;;3.35;;
59854;SDS011;45732;52.850;6.896;2023-07-29T05:48:27;6.15;;;3.15;;
59854;SDS011;45732;52.850;6.896;2023-07-29T05:50:53;7.65;;;3.55;;
59854;SDS011;45732;52.850;6.896;2023-07-29T05:53:19;6.20;;;3.40;;
59854;SDS011;45732;52.850;6.896;2023-07-29T05:55:45;7.85;;;3.30;;
59854;SDS011;45732;52.850;6.896;2023-07-29T05:58:10;7.57;;;3.65;;
59854;SDS011;45732;52.850;6.896;2023-07-29T06:00:36;5.97;;;3.50;;
59854;SDS011;45732;52.850;6.896;2023-07-29T06:03:02;9.13;;;3.90;;
59854;SDS011;45732;52.850;6.896;2023-07-29T06:05:27;9.73;;;4.00;;
59854;SDS011;45732;52.850;6.896;2023-07-29T06:07:53;8.13;;;4.20;;
59854;SDS011;45732;52.850;6.896;2023-07-29T06:10:19;10.63;;;4.22;;
59854;SDS011;45732;52.850;6.896;2023-07-29T06:12:45;8.68;;;4.32;;
59854;SDS011;45732;52.850;6.896;2023-07-29T06:15:11;7.82;;;4.47;;
59854;SDS011;45732;52.850;6.896;2023-07-29T06:17:37;8.55;;;4.50;;
59854;SDS011;45732;52.850;6.896;2023-07-29T06:20:04;11.07;;;4.90;;
59854;SDS011;45732;52.850;6.896;2023-07-29T06:22:31;8.05;;;4.90;;
59854;SDS011;45732;52.850;6.896;2023-07-29T06:24:56;8.70;;;4.68;;
59854;SDS011;45732;52.850;6.896;2023-07-29T06:27:22;9.07;;;5.10;;
59854;SDS011;45732;52.850;6.896;2023-07-29T06:29:50;9.00;;;5.03;;
59854;SDS011;45732;52.850;6.896;2023-07-29T06:32:15;11.55;;;5.53;;
59854;SDS011;45732;52.850;6.896;2023-07-29T06:34:41;10.88;;;5.22;;
59854;SDS011;45732;52.850;6.896;2023-07-29T06:37:07;10.93;;;5.22;;
59854;SDS011;45732;52.850;6.896;2023-07-29T06:39:33;11.43;;;5.93;;
59854;SDS011;45732;52.850;6.896;2023-07-29T06:41:59;10.73;;;5.45;;
59854;SDS011;45732;52.850;6.896;2023-07-29T06:44:25;11.32;;;6.10;;
59854;SDS011;45732;52.850;6.896;2023-07-29T06:46:51;9.27;;;5.25;;
59854;SDS011;45732;52.850;6.896;2023-07-29T06:49:16;10.35;;;5.50;;
59854;SDS011;45732;52.850;6.896;2023-07-29T06:51:42;11.18;;;5.80;;
59854;SDS011;45732;52.850;6.896;2023-07-29T06:54:08;11.30;;;5.60;;
59854;SDS011;45732;52.850;6.896;2023-07-29T06:56:33;11.55;;;5.30;;
59854;SDS011;45732;52.850;6.896;2023-07-29T06:58:59;15.70;;;6.07;;
59854;SDS011;45732;52.850;6.896;2023-07-29T07:01:25;10.45;;;5.75;;
59854;SDS011;45732;52.850;6.896;2023-07-29T07:03:51;11.20;;;5.43;;
59854;SDS011;45732;52.850;6.896;2023-07-29T07:06:19;11.90;;;6.18;;
59854;SDS011;45732;52.850;6.896;2023-07-29T07:08:47;9.55;;;5.80;;
59854;SDS011;45732;52.850;6.896;2023-07-29T07:11:13;10.35;;;6.03;;
59854;SDS011;45732;52.850;6.896;2023-07-29T07:13:38;12.27;;;6.25;;
59854;SDS011;45732;52.850;6.896;2023-07-29T07:16:04;12.65;;;6.53;;
59854;SDS011;45732;52.850;6.896;2023-07-29T07:18:30;14.13;;;6.43;;
59854;SDS011;45732;52.850;6.896;2023-07-29T07:20:55;11.40;;;6.25;;
59854;SDS011;45732;52.850;6.896;2023-07-29T07:23:21;11.30;;;6.38;;
59854;SDS011;45732;52.850;6.896;2023-07-29T07:25:47;11.05;;;6.80;;
59854;SDS011;45732;52.850;6.896;2023-07-29T07:28:13;12.00;;;6.88;;
59854;SDS011;45732;52.850;6.896;2023-07-29T07:30:41;11.23;;;6.82;;
59854;SDS011;45732;52.850;6.896;2023-07-29T07:33:07;11.35;;;6.85;;
59854;SDS011;45732;52.850;6.896;2023-07-29T07:35:33;9.90;;;6.65;;
59854;SDS011;45732;52.850;6.896;2023-07-29T07:37:59;11.60;;;6.68;;
59854;SDS011;45732;52.850;6.896;2023-07-29T07:40:27;13.80;;;7.55;;
59854;SDS011;45732;52.850;6.896;2023-07-29T07:42:53;12.40;;;7.70;;
59854;SDS011;45732;52.850;6.896;2023-07-29T07:45:19;16.70;;;7.45;;
59854;SDS011;45732;52.850;6.896;2023-07-29T07:47:45;14.32;;;8.10;;
59854;SDS011;45732;52.850;6.896;2023-07-29T07:50:11;12.93;;;8.02;;
59854;SDS011;45732;52.850;6.896;2023-07-29T07:52:37;12.95;;;7.85;;
59854;SDS011;45732;52.850;6.896;2023-07-29T07:55:02;12.27;;;7.57;;
59854;SDS011;45732;52.850;6.896;2023-07-29T07:57:28;10.73;;;6.82;;
59854;SDS011;45732;52.850;6.896;2023-07-29T07:59:54;14.45;;;6.97;;
59854;SDS011;45732;52.850;6.896;2023-07-29T08:02:20;9.57;;;6.05;;
59854;SDS011;45732;52.850;6.896;2023-07-29T08:04:45;12.55;;;6.25;;
59854;SDS011;45732;52.850;6.896;2023-07-29T08:07:11;9.30;;;5.50;;
59854;SDS011;45732;52.850;6.896;2023-07-29T08:09:38;8.70;;;5.13;;
59854;SDS011;45732;52.850;6.896;2023-07-29T08:12:04;8.68;;;4.88;;
59854;SDS011;45732;52.850;6.896;2023-07-29T08:14:30;9.38;;;4.97;;
59854;SDS011;45732;52.850;6.896;2023-07-29T08:16:56;7.78;;;4.22;;
59854;SDS011;45732;52.850;6.896;2023-07-29T08:19:21;11.77;;;4.47;;
59854;SDS011;45732;52.850;6.896;2023-07-29T08:21:47;7.82;;;3.80;;
59854;SDS011;45732;52.850;6.896;2023-07-29T08:24:13;7.30;;;3.50;;
59854;SDS011;45732;52.850;6.896;2023-07-29T08:26:39;7.65;;;3.20;;
59854;SDS011;45732;52.850;6.896;2023-07-29T08:29:04;7.10;;;3.25;;
59854;SDS011;45732;52.850;6.896;2023-07-29T08:31:30;5.25;;;2.80;;
59854;SDS011;45732;52.850;6.896;2023-07-29T08:33:58;7.25;;;3.58;;
59854;SDS011;45732;52.850;6.896;2023-07-29T08:36:25;5.60;;;2.83;;
59854;SDS011;45732;52.850;6.896;2023-07-29T08:38:51;6.20;;;2.92;;
59854;SDS011;45732;52.850;6.896;2023-07-29T08:41:19;7.53;;;2.83;;
59854;SDS011;45732;52.850;6.896;2023-07-29T08:46:19;7.70;;;3.25;;
59854;SDS011;45732;52.850;6.896;2023-07-29T08:48:45;8.68;;;3.40;;
59854;SDS011;45732;52.850;6.896;2023-07-29T08:51:11;7.22;;;3.20;;
59854;SDS011;45732;52.850;6.896;2023-07-29T08:53:38;9.20;;;3.40;;
59854;SDS011;45732;52.850;6.896;2023-07-29T08:56:05;6.43;;;2.67;;
59854;SDS011;45732;52.850;6.896;2023-07-29T08:58:31;6.22;;;2.85;;
59854;SDS011;45732;52.850;6.896;2023-07-29T09:00:58;6.15;;;2.60;;
59854;SDS011;45732;52.850;6.896;2023-07-29T09:03:23;8.10;;;3.30;;
59854;SDS011;45732;52.850;6.896;2023-07-29T09:05:49;8.10;;;2.92;;
59854;SDS011;45732;52.850;6.896;2023-07-29T09:08:16;7.57;;;3.15;;
59854;SDS011;45732;52.850;6.896;2023-07-29T09:10:42;6.85;;;2.80;;
59854;SDS011;45732;52.850;6.896;2023-07-29T09:13:08;8.13;;;3.60;;
59854;SDS011;45732;52.850;6.896;2023-07-29T09:15:34;6.28;;;3.40;;
59854;SDS011;45732;52.850;6.896;2023-07-29T09:18:11;7.05;;;3.00;;
59854;SDS011;45732;52.850;6.896;2023-07-29T09:20:41;6.10;;;2.97;;
59854;SDS011;45732;52.850;6.896;2023-07-29T09:23:08;6.45;;;2.90;;
59854;SDS011;45732;52.850;6.896;2023-07-29T09:25:37;7.88;;;2.65;;
59854;SDS011;45732;52.850;6.896;2023-07-29T09:28:08;5.28;;;2.53;;
59854;SDS011;45732;52.850;6.896;2023-07-29T09:30:35;4.85;;;2.75;;
59854;SDS011;45732;52.850;6.896;2023-07-29T09:33:02;5.95;;;2.60;;
59854;SDS011;45732;52.850;6.896;2023-07-29T09:35:30;8.57;;;2.60;;
59854;SDS011;45732;52.850;6.896;2023-07-29T09:37:57;5.57;;;2.45;;
59854;SDS011;45732;52.850;6.896;2023-07-29T09:40:23;7.50;;;2.70;;
59854;SDS011;45732;52.850;6.896;2023-07-29T09:42:52;6.15;;;2.10;;
59854;SDS011;45732;52.850;6.896;2023-07-29T09:45:25;5.15;;;2.03;;
59854;SDS011;45732;52.850;6.896;2023-07-29T09:47:52;6.28;;;2.08;;
59854;SDS011;45732;52.850;6.896;2023-07-29T09:50:20;6.00;;;1.67;;
59854;SDS011;45732;52.850;6.896;2023-07-29T09:52:48;5.82;;;1.83;;
59854;SDS011;45732;52.850;6.896;2023-07-29T09:55:19;6.93;;;2.30;;
59854;SDS011;45732;52.850;6.896;2023-07-29T09:57:46;8.07;;;2.53;;
59854;SDS011;45732;52.850;6.896;2023-07-29T10:00:12;6.63;;;2.00;;
59854;SDS011;45732;52.850;6.896;2023-07-29T10:02:39;3.75;;;1.83;;
59854;SDS011;45732;52.850;6.896;2023-07-29T10:05:06;12.73;;;2.63;;
59854;SDS011;45732;52.850;6.896;2023-07-29T10:07:34;7.22;;;1.85;;
59854;SDS011;45732;52.850;6.896;2023-07-29T10:10:02;5.07;;;1.83;;
59854;SDS011;45732;52.850;6.896;2023-07-29T10:12:33;7.00;;;2.00;;
59854;SDS011;45732;52.850;6.896;2023-07-29T10:15:04;3.58;;;1.90;;
59854;SDS011;45732;52.850;6.896;2023-07-29T10:17:33;5.63;;;1.90;;
59854;SDS011;45732;52.850;6.896;2023-07-29T10:20:01;4.95;;;1.88;;
59854;SDS011;45732;52.850;6.896;2023-07-29T10:22:32;6.35;;;2.10;;
59854;SDS011;45732;52.850;6.896;2023-07-29T10:25:02;3.72;;;1.67;;
59854;SDS011;45732;52.850;6.896;2023-07-29T10:28:00;5.38;;;2.03;;
59854;SDS011;45732;52.850;6.896;2023-07-29T10:30:30;5.68;;;2.15;;
59854;SDS011;45732;52.850;6.896;2023-07-29T10:33:01;5.40;;;2.20;;
59854;SDS011;45732;52.850;6.896;2023-07-29T10:35:29;6.57;;;2.15;;
59854;SDS011;45732;52.850;6.896;2023-07-29T10:37:55;6.55;;;2.05;;
59854;SDS011;45732;52.850;6.896;2023-07-29T10:40:21;6.05;;;1.85;;
59854;SDS011;45732;52.850;6.896;2023-07-29T10:45:52;5.18;;;1.90;;
59854;SDS011;45732;52.850;6.896;2023-07-29T10:48:39;4.32;;;2.00;;
59854;SDS011;45732;52.850;6.896;2023-07-29T10:53:58;4.50;;;1.90;;
59854;SDS011;45732;52.850;6.896;2023-07-29T10:56:35;5.55;;;2.17;;
59854;SDS011;45732;52.850;6.896;2023-07-29T10:59:22;4.20;;;1.88;;
59854;SDS011;45732;52.850;6.896;2023-07-29T11:01:59;5.70;;;2.38;;
59854;SDS011;45732;52.850;6.896;2023-07-29T11:04:26;4.82;;;1.95;;
59854;SDS011;45732;52.850;6.896;2023-07-29T11:09:39;5.70;;;2.03;;
59854;SDS011;45732;52.850;6.896;2023-07-29T11:12:34;4.95;;;2.45;;
59854;SDS011;45732;52.850;6.896;2023-07-29T11:17:34;8.25;;;2.53;;
59854;SDS011;45732;52.850;6.896;2023-07-29T11:20:03;7.28;;;3.33;;
59854;SDS011;45732;52.850;6.896;2023-07-29T11:22:30;6.03;;;3.45;;
59854;SDS011;45732;52.850;6.896;2023-07-29T11:24:56;6.55;;;3.03;;
59854;SDS011;45732;52.850;6.896;2023-07-29T11:27:22;5.70;;;3.03;;
59854;SDS011;45732;52.850;6.896;2023-07-29T11:29:48;7.25;;;3.25;;
59854;SDS011;45732;52.850;6.896;2023-07-29T11:32:14;7.75;;;4.00;;
59854;SDS011;45732;52.850;6.896;2023-07-29T11:34:41;7.15;;;3.58;;
59854;SDS011;45732;52.850;6.896;2023-07-29T11:37:09;5.28;;;3.05;;
59854;SDS011;45732;52.850;6.896;2023-07-29T11:39:42;8.55;;;3.13;;
59854;SDS011;45732;52.850;6.896;2023-07-29T11:42:15;6.95;;;2.72;;
59854;SDS011;45732;52.850;6.896;2023-07-29T11:44:41;6.18;;;2.80;;
59854;SDS011;45732;52.850;6.896;2023-07-29T11:47:08;4.85;;;2.20;;
59854;SDS011;45732;52.850;6.896;2023-07-29T11:49:35;6.22;;;2.60;;
59854;SDS011;45732;52.850;6.896;2023-07-29T11:52:03;6.45;;;2.70;;
59854;SDS011;45732;52.850;6.896;2023-07-29T11:54:31;6.22;;;2.70;;
59854;SDS011;45732;52.850;6.896;2023-07-29T11:56:57;8.80;;;2.90;;
59854;SDS011;45732;52.850;6.896;2023-07-29T11:59:23;5.55;;;2.65;;
59854;SDS011;45732;52.850;6.896;2023-07-29T12:01:49;5.80;;;2.53;;
59854;SDS011;45732;52.850;6.896;2023-07-29T12:04:15;6.10;;;2.72;;
59854;SDS011;45732;52.850;6.896;2023-07-29T12:06:41;6.32;;;2.75;;
59854;SDS011;45732;52.850;6.896;2023-07-29T12:09:07;7.95;;;3.00;;
59854;SDS011;45732;52.850;6.896;2023-07-29T12:11:34;13.00;;;3.80;;
59854;SDS011;45732;52.850;6.896;2023-07-29T12:14:00;5.20;;;3.10;;
59854;SDS011;45732;52.850;6.896;2023-07-29T12:16:26;4.85;;;2.92;;
59854;SDS011;45732;52.850;6.896;2023-07-29T12:18:52;6.88;;;2.80;;
59854;SDS011;45732;52.850;6.896;2023-07-29T12:21:20;6.38;;;2.97;;
59854;SDS011;45732;52.850;6.896;2023-07-29T12:23:46;4.57;;;2.50;;
59854;SDS011;45732;52.850;6.896;2023-07-29T12:26:12;7.28;;;2.75;;
59854;SDS011;45732;52.850;6.896;2023-07-29T12:28:38;7.65;;;3.00;;
59854;SDS011;45732;52.850;6.896;2023-07-29T12:31:06;5.95;;;2.58;;
59854;SDS011;45732;52.850;6.896;2023-07-29T12:33:34;6.63;;;2.95;;
59854;SDS011;45732;52.850;6.896;2023-07-29T12:36:01;5.57;;;2.38;;
59854;SDS011;45732;52.850;6.896;2023-07-29T12:38:28;6.78;;;2.78;;
59854;SDS011;45732;52.850;6.896;2023-07-29T12:40:54;6.53;;;2.40;;
59854;SDS011;45732;52.850;6.896;2023-07-29T12:43:20;5.88;;;2.10;;
59854;SDS011;45732;52.850;6.896;2023-07-29T12:45:48;5.65;;;2.05;;
59854;SDS011;45732;52.850;6.896;2023-07-29T12:48:14;7.85;;;2.38;;
59854;SDS011;45732;52.850;6.896;2023-07-29T12:50:40;6.07;;;2.33;;
59854;SDS011;45732;52.850;6.896;2023-07-29T12:53:06;4.78;;;2.20;;
59854;SDS011;45732;52.850;6.896;2023-07-29T12:55:35;6.05;;;2.20;;
59854;SDS011;45732;52.850;6.896;2023-07-29T12:58:01;6.97;;;2.25;;
59854;SDS011;45732;52.850;6.896;2023-07-29T13:00:27;4.60;;;1.90;;
59854;SDS011;45732;52.850;6.896;2023-07-29T13:02:53;5.97;;;1.73;;
59854;SDS011;45732;52.850;6.896;2023-07-29T13:05:19;7.15;;;2.03;;
59854;SDS011;45732;52.850;6.896;2023-07-29T13:07:45;4.85;;;1.70;;
59854;SDS011;45732;52.850;6.896;2023-07-29T13:10:11;4.70;;;1.73;;
59854;SDS011;45732;52.850;6.896;2023-07-29T13:12:37;4.53;;;1.88;;
59854;SDS011;45732;52.850;6.896;2023-07-29T13:15:04;4.82;;;1.77;;
59854;SDS011;45732;52.850;6.896;2023-07-29T13:17:30;7.47;;;2.10;;
59854;SDS011;45732;52.850;6.896;2023-07-29T13:19:56;4.60;;;1.90;;
59854;SDS011;45732;52.850;6.896;2023-07-29T13:22:22;4.57;;;1.90;;
59854;SDS011;45732;52.850;6.896;2023-07-29T13:24:47;4.93;;;1.80;;
59854;SDS011;45732;52.850;6.896;2023-07-29T13:27:13;4.97;;;1.73;;
59854;SDS011;45732;52.850;6.896;2023-07-29T13:29:39;4.55;;;1.67;;
59854;SDS011;45732;52.850;6.896;2023-07-29T13:32:05;4.60;;;1.52;;
59854;SDS011;45732;52.850;6.896;2023-07-29T13:34:31;4.80;;;1.75;;
59854;SDS011;45732;52.850;6.896;2023-07-29T13:36:59;3.70;;;1.50;;
59854;SDS011;45732;52.850;6.896;2023-07-29T13:39:25;3.80;;;1.77;;
59854;SDS011;45732;52.850;6.896;2023-07-29T13:41:50;4.75;;;2.13;;
59854;SDS011;45732;52.850;6.896;2023-07-29T13:44:16;6.07;;;1.90;;
59854;SDS011;45732;52.850;6.896;2023-07-29T13:46:42;4.43;;;2.17;;
59854;SDS011;45732;52.850;6.896;2023-07-29T13:49:08;7.45;;;2.10;;
59854;SDS011;45732;52.850;6.896;2023-07-29T13:51:33;3.53;;;2.00;;
59854;SDS011;45732;52.850;6.896;2023-07-29T13:53:59;8.77;;;2.35;;
59854;SDS011;45732;52.850;6.896;2023-07-29T13:56:25;6.13;;;2.28;;
59854;SDS011;45732;52.850;6.896;2023-07-29T13:58:50;6.32;;;2.38;;
59854;SDS011;45732;52.850;6.896;2023-07-29T14:01:16;8.73;;;2.75;;
59854;SDS011;45732;52.850;6.896;2023-07-29T14:03:43;10.65;;;3.30;;
59854;SDS011;45732;52.850;6.896;2023-07-29T14:06:08;6.53;;;2.00;;
59854;SDS011;45732;52.850;6.896;2023-07-29T14:08:34;6.38;;;2.30;;
59854;SDS011;45732;52.850;6.896;2023-07-29T14:11:00;7.78;;;1.90;;
59854;SDS011;45732;52.850;6.896;2023-07-29T14:13:26;4.93;;;1.42;;
59854;SDS011;45732;52.850;6.896;2023-07-29T14:15:52;5.05;;;1.60;;
59854;SDS011;45732;52.850;6.896;2023-07-29T14:18:17;4.22;;;1.73;;
59854;SDS011;45732;52.850;6.896;2023-07-29T14:20:43;3.72;;;1.67;;
59854;SDS011;45732;52.850;6.896;2023-07-29T14:23:09;4.63;;;1.63;;
59854;SDS011;45732;52.850;6.896;2023-07-29T14:25:35;3.88;;;1.60;;
59854;SDS011;45732;52.850;6.896;2023-07-29T14:28:01;7.53;;;1.90;;
59854;SDS011;45732;52.850;6.896;2023-07-29T14:30:27;4.47;;;1.60;;
59854;SDS011;45732;52.850;6.896;2023-07-29T14:32:52;4.78;;;1.98;;
59854;SDS011;45732;52.850;6.896;2023-07-29T14:35:18;5.63;;;2.17;;
59854;SDS011;45732;52.850;6.896;2023-07-29T14:37:44;6.97;;;2.13;;
59854;SDS011;45732;52.850;6.896;2023-07-29T14:40:09;4.85;;;2.15;;
59854;SDS011;45732;52.850;6.896;2023-07-29T14:42:35;5.50;;;2.30;;
59854;SDS011;45732;52.850;6.896;2023-07-29T14:45:01;6.65;;;2.40;;
59854;SDS011;45732;52.850;6.896;2023-07-29T14:47:27;5.22;;;2.20;;
59854;SDS011;45732;52.850;6.896;2023-07-29T14:49:52;5.40;;;2.47;;
59854;SDS011;45732;52.850;6.896;2023-07-29T14:52:18;4.47;;;2.20;;
59854;SDS011;45732;52.850;6.896;2023-07-29T14:54:44;4.85;;;2.30;;
59854;SDS011;45732;52.850;6.896;2023-07-29T14:57:10;6.80;;;2.17;;
59854;SDS011;45732;52.850;6.896;2023-07-29T14:59:36;7.57;;;2.58;;
59854;SDS011;45732;52.850;6.896;2023-07-29T15:02:02;5.78;;;2.33;;
59854;SDS011;45732;52.850;6.896;2023-07-29T15:04:27;7.80;;;2.90;;